Time;durP1;ratioP1;P1;durP2;ratioP2;P2;SDS_P1;SDS_P2;PMS_P1;PMS_P2;Temp;Humidity;BMP_temperature;BMP_pressure;BME280_temperature;BME280_humidity;BME280_pressure;Samples;Min_cycle;Max_cycle;Signal;HPM_P1;HPM_P2
2020/12/30 05:52:22;;;;;;;13.38;7.95;;;;;;;6.71;100.00;100128.25;1767564;79;21541;-45
2020/12/30 05:54:55;;;;;;;10.13;7.83;;;;;;;6.74;100.00;100137.41;1767657;79;21182;-40
2020/12/30 05:57:33;;;;;;;13.72;8.33;;;;;;;6.76;100.00;100140.88;1773342;79;21661;-40
2020/12/30 06:00:11;;;;;;;12.73;8.58;;;;;;;6.77;100.00;100135.25;1775099;79;21536;-40
2020/12/30 06:02:43;;;;;;;13.43;8.45;;;;;;;6.79;100.00;100140.06;1769886;79;21103;-40
2020/12/30 06:05:15;;;;;;;13.98;9.20;;;;;;;6.81;100.00;100131.84;1773137;79;21493;-40
2020/12/30 06:07:46;;;;;;;14.28;8.10;;;;;;;6.82;100.00;100126.66;1772874;79;21124;-45
2020/12/30 06:10:17;;;;;;;12.88;8.23;;;;;;;6.83;100.00;100133.60;1761805;79;21150;-45
2020/12/30 06:12:52;;;;;;;11.30;7.77;;;;;;;6.85;100.00;100136.25;1755233;79;21273;-40
2020/12/30 06:15:33;;;;;;;19.62;9.13;;;;;;;6.87;100.00;100126.72;1760370;79;21159;-45
2020/12/30 06:18:05;;;;;;;12.40;8.50;;;;;;;6.88;100.00;100131.94;1783196;79;21162;-40
2020/12/30 06:20:37;;;;;;;15.18;9.00;;;;;;;6.91;100.00;100131.12;1774432;79;21222;-41
2020/12/30 06:23:14;;;;;;;12.13;8.48;;;;;;;6.93;100.00;100128.09;1769611;79;21131;-41
2020/12/30 06:25:44;;;;;;;16.30;9.10;;;;;;;6.96;100.00;100124.25;1774399;79;21152;-40
2020/12/30 06:28:20;;;;;;;11.73;8.08;;;;;;;6.99;100.00;100117.77;1771821;78;21626;-40
2020/12/30 06:30:49;;;;;;;15.40;8.63;;;;;;;7.03;100.00;100119.98;1770447;79;21327;-46
2020/12/30 06:33:22;;;;;;;16.25;9.15;;;;;;;7.05;100.00;100124.77;1776758;79;21148;-38
2020/12/30 06:36:09;;;;;;;13.93;9.18;;;;;;;7.06;100.00;100130.41;1763663;79;21178;-39
2020/12/30 06:38:42;;;;;;;;;;;;;;;7.08;100.00;100130.89;1761667;79;21170;-47
2020/12/30 06:41:09;;;;;;;12.70;8.10;;;;;;;7.12;100.00;100130.47;1773501;79;20283;-46
2020/12/30 06:43:48;;;;;;;17.45;8.90;;;;;;;7.13;100.00;100123.11;1754023;79;21161;-45
2020/12/30 06:49:49;;;;;;;15.73;8.70;;;;;;;7.15;100.00;100118.39;1775688;79;21239;-45
2020/12/30 06:56:18;;;;;;;12.73;8.55;;;;;;;7.20;100.00;100119.75;1771967;79;21164;-46
2020/12/30 06:59:28;;;;;;;14.20;8.70;;;;;;;7.23;100.00;100139.27;1776836;79;22136;-47
2020/12/30 07:02:03;;;;;;;15.65;8.95;;;;;;;7.26;100.00;100144.96;1773454;79;21150;-46
2020/12/30 07:05:04;;;;;;;17.17;9.80;;;;;;;7.29;100.00;100143.67;1777095;79;21207;-41
2020/12/30 07:07:33;;;;;;;19.23;11.12;;;;;;;7.30;100.00;100139.78;1735251;79;21158;-39
2020/12/30 07:10:02;;;;;;;16.57;9.93;;;;;;;7.32;100.00;100136.78;1730490;79;21167;-45
2020/12/30 07:12:50;;;;;;;16.87;9.25;;;;;;;7.36;100.00;100138.97;1723307;79;21196;-43
2020/12/30 07:15:39;;;;;;;16.10;9.33;;;;;;;7.40;100.00;100146.84;1769742;79;21799;-44
2020/12/30 07:18:07;;;;;;;14.63;9.45;;;;;;;7.42;100.00;100152.95;1773682;79;21210;-44
2020/12/30 07:20:40;;;;;;;15.35;9.08;;;;;;;7.44;100.00;100152.96;1768449;79;21135;-38
2020/12/30 07:23:09;;;;;;;;;;;;;;;7.47;100.00;100155.58;1772038;79;21150;-43
2020/12/30 07:25:37;;;;;;;16.93;9.83;;;;;;;7.49;100.00;100143.47;1775563;79;20488;-44
2020/12/30 07:28:05;;;;;;;19.25;12.07;;;;;;;7.51;100.00;100146.08;1773353;79;21131;-39
2020/12/30 07:30:45;;;;;;;29.57;12.60;;;;;;;7.53;100.00;100157.38;1738246;81;21224;-44
2020/12/30 07:36:54;;;;;;;19.12;11.30;;;;;;;7.55;100.00;100163.05;1684239;82;22164;-44
2020/12/30 07:39:34;;;;;;;29.30;11.90;;;;;;;7.61;100.00;100168.75;1735022;79;21154;-44
2020/12/30 07:42:17;;;;;;;17.20;11.35;;;;;;;7.62;100.00;100164.86;1718676;81;21244;-44
2020/12/30 07:45:09;;;;;;;23.52;12.95;;;;;;;7.63;100.00;100162.69;1700887;82;21819;-45
2020/12/30 07:47:37;;;;;;;20.00;12.47;;;;;;;7.64;100.00;100157.92;1718100;82;21525;-44
2020/12/30 07:50:17;;;;;;;23.87;12.58;;;;;;;7.66;100.00;100159.27;1718491;81;21216;-44
2020/12/30 07:52:52;;;;;;;19.25;12.60;;;;;;;7.69;100.00;100165.34;1721474;81;21215;-44
2020/12/30 07:55:31;;;;;;;26.65;14.38;;;;;;;7.71;100.00;100158.84;1735056;80;21725;-44
2020/12/30 07:57:58;;;;;;;20.15;12.03;;;;;;;7.71;100.00;100173.17;1727754;81;21146;-43
2020/12/30 08:01:13;;;;;;;23.83;12.95;;;;;;;7.73;100.00;100164.96;1697976;81;22113;-44
2020/12/30 08:08:23;;;;;;;25.60;13.32;;;;;;;7.79;100.00;100169.36;1730323;80;21155;-39
2020/12/30 08:11:39;;;;;;;25.12;13.65;;;;;;;7.80;100.00;100171.09;1747897;80;21158;-41
2020/12/30 08:15:27;;;;;;;23.75;11.93;;;;;;;7.81;100.00;100177.61;1752193;80;21075;-38
2020/12/30 08:18:07;;;;;;;31.40;13.70;;;;;;;7.82;100.00;100166.33;1758425;80;21141;-44
2020/12/30 08:21:08;;;;;;;24.65;13.18;;;;;;;7.82;100.00;100173.27;1726571;81;21773;-44
2020/12/30 08:23:37;;;;;;;22.20;12.73;;;;;;;7.81;100.00;100163.29;1714576;81;21159;-43
2020/12/30 08:26:28;;;;;;;22.00;12.10;;;;;;;7.84;100.00;100157.25;1726426;81;21723;-44
2020/12/30 08:29:21;;;;;;;19.40;11.55;;;;;;;7.88;100.00;100162.48;1729547;81;21797;-39
2020/12/30 08:31:58;;;;;;;25.10;12.65;;;;;;;7.91;100.00;100174.24;1728724;81;21553;-39
2020/12/30 08:34:30;;;;;;;23.60;12.45;;;;;;;7.92;100.00;100167.30;1728735;81;21633;-39
2020/12/30 08:37:10;;;;;;;19.53;12.63;;;;;;;7.94;100.00;100159.95;1744264;80;21155;-38
2020/12/30 08:39:47;;;;;;;22.55;13.28;;;;;;;7.97;100.00;100161.27;1750794;80;21156;-39
2020/12/30 08:42:55;;;;;;;23.38;13.83;;;;;;;7.99;100.00;100170.39;1749587;80;21134;-39
2020/12/30 08:45:36;;;;;;;20.65;13.50;;;;;;;7.97;100.00;100169.08;1741820;80;21265;-44
2020/12/30 08:48:13;;;;;;;23.55;14.10;;;;;;;7.98;100.00;100160.83;1748054;80;21678;-44
2020/12/30 08:50:44;;;;;;;25.72;14.87;;;;;;;7.97;100.00;100163.88;1752571;80;21869;-44
2020/12/30 08:53:12;;;;;;;25.72;13.78;;;;;;;7.99;100.00;100180.38;1746328;80;22105;-44
2020/12/30 08:56:02;;;;;;;23.52;14.20;;;;;;;8.03;100.00;100173.91;1727308;80;21195;-44
2020/12/30 08:58:37;;;;;;;31.62;16.05;;;;;;;8.06;100.00;100171.31;1731331;80;21218;-39
2020/12/30 09:01:23;;;;;;;28.60;14.87;;;;;;;8.09;100.00;100160.49;1732464;80;21718;-39
2020/12/30 09:03:53;;;;;;;29.77;14.55;;;;;;;8.14;100.00;100159.23;1731974;80;21163;-38
2020/12/30 09:06:27;;;;;;;29.18;15.65;;;;;;;8.19;100.00;100165.36;1726747;80;21152;-38
2020/12/30 09:08:56;;;;;;;26.48;14.68;;;;;;;8.21;100.00;100167.53;1732662;80;21188;-38
2020/12/30 09:11:26;;;;;;;28.10;15.20;;;;;;;8.23;100.00;100165.80;1727040;80;21131;-43
2020/12/30 09:13:57;;;;;;;32.40;17.15;;;;;;;8.24;100.00;100161.92;1729102;80;21184;-38
2020/12/30 09:16:26;;;;;;;34.05;17.87;;;;;;;8.24;100.00;100158.02;1728754;80;21770;-39
2020/12/30 09:18:56;;;;;;;30.02;17.12;;;;;;;8.30;100.00;100146.76;1719125;81;21560;-39
2020/12/30 09:21:29;;;;;;;33.18;18.70;;;;;;;8.34;100.00;100147.63;1726085;81;21179;-39
2020/12/30 09:23:56;;;;;;;38.10;19.00;;;;;;;8.37;100.00;100154.22;1723736;81;21190;-39
2020/12/30 09:26:29;;;;;;;39.55;18.55;;;;;;;8.40;100.00;100150.31;1725402;80;21192;-39
2020/12/30 09:28:57;;;;;;;41.88;19.62;;;;;;;8.44;100.00;100142.96;1727585;80;21489;-39
2020/12/30 09:31:24;;;;;;;37.85;19.42;;;;;;;8.45;100.00;100130.36;1728924;80;21171;-39
2020/12/30 09:33:52;;;;;;;37.70;19.42;;;;;;;8.45;100.00;100135.58;1729351;80;21525;-39
2020/12/30 09:36:20;;;;;;;40.20;19.52;;;;;;;8.46;100.00;100137.31;1732130;81;21208;-39
2020/12/30 09:38:55;;;;;;;40.12;20.95;;;;;;;8.49;100.00;100137.34;1730910;80;21191;-39
2020/12/30 09:41:24;;;;;;;42.10;20.05;;;;;;;8.52;100.00;100138.25;1732689;81;21321;-39
2020/12/30 09:43:52;;;;;;;37.15;20.08;;;;;;;8.54;100.00;100126.52;1723785;81;21120;-38
2020/12/30 09:46:21;;;;;;;38.10;19.15;;;;;;;8.56;100.00;100133.91;1723547;81;21228;-39
2020/12/30 09:48:49;;;;;;;42.33;20.08;;;;;;;8.57;100.00;100132.16;1732942;81;21592;-44
2020/12/30 09:51:18;;;;;;;38.58;19.62;;;;;;;8.55;100.00;100124.78;1720775;82;21179;-44
2020/12/30 09:53:51;;;;;;;41.50;21.15;;;;;;;8.52;100.00;100121.30;1688506;82;21338;-43
2020/12/30 09:56:19;;;;;;;35.63;19.77;;;;;;;8.53;100.00;100124.78;1694393;82;21179;-38
2020/12/30 09:58:47;;;;;;;39.92;20.08;;;;;;;8.55;100.00;100117.83;1713125;81;21195;-44
2020/12/30 10:01:21;;;;;;;34.15;19.17;;;;;;;8.58;100.00;100110.44;1703746;82;21183;-38
2020/12/30 10:03:49;;;;;;;41.13;20.20;;;;;;;8.60;100.00;100111.34;1707274;82;21611;-43
2020/12/30 10:06:17;;;;;;;41.63;19.55;;;;;;;8.63;100.00;100113.94;1700783;83;21195;-43
2020/12/30 10:08:45;;;;;;;40.50;19.73;;;;;;;8.64;100.00;100111.37;1703866;82;21166;-44
2020/12/30 10:11:18;;;;;;;44.65;21.05;;;;;;;8.67;100.00;100109.19;1703375;81;21693;-43
2020/12/30 10:13:46;;;;;;;47.78;21.93;;;;;;;8.69;100.00;100113.53;1702179;82;21210;-43
2020/12/30 10:16:14;;;;;;;46.45;21.57;;;;;;;8.70;100.00;100114.00;1704124;82;21522;-44
2020/12/30 10:18:42;;;;;;;38.65;20.90;;;;;;;8.71;100.00;100105.73;1705396;82;21546;-39
2020/12/30 10:21:09;;;;;;;49.83;21.50;;;;;;;8.74;100.00;100106.61;1704009;82;21139;-39
2020/12/30 10:23:38;;;;;;;40.73;19.87;;;;;;;8.78;100.00;100104.46;1710877;82;21553;-38
2020/12/30 10:26:07;;;;;;;39.20;18.42;;;;;;;8.80;100.00;100092.72;1749531;80;21213;-43
2020/12/30 10:28:39;;;;;;;40.08;18.25;;;;;;;8.83;100.00;100092.75;1751104;80;21564;-44
2020/12/30 10:31:15;;;;;;;44.53;19.17;;;;;;;8.87;100.00;100082.77;1746833;80;21316;-44
2020/12/30 10:33:42;;;;;;;35.73;17.82;;;;;;;8.90;100.00;100081.45;1751680;80;21174;-39
2020/12/30 10:36:10;;;;;;;41.55;17.27;;;;;;;8.94;100.00;100076.70;1748496;80;21219;-39
2020/12/30 10:38:38;;;;;;;40.58;16.55;;;;;;;9.00;100.00;100083.23;1749025;80;21143;-39
2020/12/30 10:41:06;;;;;;;31.25;16.67;;;;;;;9.06;100.00;100075.86;1752642;80;21611;-43
2020/12/30 10:43:34;;;;;;;41.02;16.97;;;;;;;9.09;100.00;100065.41;1750333;80;21187;-44
2020/12/30 10:46:02;;;;;;;39.45;17.23;;;;;;;9.14;100.00;100066.73;1747887;80;21162;-43
2020/12/30 10:48:30;;;;;;;38.15;16.80;;;;;;;9.20;100.00;100070.66;1750815;80;21135;-47
2020/12/30 10:50:59;;;;;;;36.88;16.65;;;;;;;9.25;99.97;100068.50;1748855;80;21216;-38
2020/12/30 10:53:29;;;;;;;32.42;14.20;;;;;;;9.30;99.54;100059.38;1745899;80;21170;-38
2020/12/30 10:55:58;;;;;;;30.68;13.68;;;;;;;9.31;98.96;100050.67;1727545;80;21194;-37
2020/12/30 10:58:28;;;;;;;25.12;12.45;;;;;;;9.31;98.56;100053.28;1754187;80;21305;-37
2020/12/30 11:00:56;;;;;;;29.52;12.90;;;;;;;9.30;98.28;100060.24;1706246;80;21139;-42
2020/12/30 11:03:24;;;;;;;30.62;12.30;;;;;;;9.31;98.12;100061.98;1749079;80;21135;-43
2020/12/30 11:05:51;;;;;;;24.07;12.23;;;;;;;9.34;98.14;100057.22;1751530;80;21718;-38
2020/12/30 11:08:20;;;;;;;31.77;12.75;;;;;;;9.36;97.99;100048.94;1750174;80;21144;-37
2020/12/30 11:10:53;;;;;;;31.15;12.88;;;;;;;9.39;97.87;100051.97;1748751;80;21186;-42
2020/12/30 11:13:31;;;;;;;33.53;13.00;;;;;;;9.40;97.83;100049.39;1734382;81;21168;-43
2020/12/30 11:15:59;;;;;;;29.77;12.82;;;;;;;9.45;97.63;100055.48;1742235;80;21203;-39
2020/12/30 11:18:27;;;;;;;25.40;12.10;;;;;;;9.48;97.30;100057.22;1741635;80;21465;-38
2020/12/30 11:20:56;;;;;;;28.32;13.05;;;;;;;9.49;97.07;100051.11;1750746;80;21173;-38
2020/12/30 11:23:25;;;;;;;32.73;11.97;;;;;;;9.51;97.02;100047.66;1756227;80;21297;-43
2020/12/30 11:25:54;;;;;;;30.90;11.93;;;;;;;9.54;97.02;100055.47;1701794;81;21473;-43
2020/12/30 11:28:23;;;;;;;30.82;12.35;;;;;;;9.58;96.82;100056.36;1746887;80;21337;-44
2020/12/30 11:30:50;;;;;;;28.15;11.93;;;;;;;9.61;96.68;100057.64;1741847;81;21789;-44
2020/12/30 11:33:18;;;;;;;28.80;10.65;;;;;;;9.63;96.57;100052.01;1746175;80;21171;-39
2020/12/30 11:35:46;;;;;;;35.60;11.50;;;;;;;9.65;96.59;100045.03;1744245;80;21163;-38
2020/12/30 11:38:13;;;;;;;26.52;10.45;;;;;;;9.71;96.52;100050.69;1751994;80;21651;-39
2020/12/30 11:40:41;;;;;;;29.18;9.78;;;;;;;9.76;96.33;100045.03;1739880;81;21191;-43
2020/12/30 11:43:09;;;;;;;25.72;10.32;;;;;;;9.82;96.17;100042.41;1746988;81;21154;-40
